Time;durP1;ratioP1;P1;durP2;ratioP2;P2;SDS_P1;SDS_P2;PMS_P1;PMS_P2;Temp;Humidity;BMP_temperature;BMP_pressure;BME280_temperature;BME280_humidity;BME280_pressure;Samples;Min_cycle;Max_cycle;Signal;HPM_P1;HPM_P2
2022/05/18 00:00:47;;;;;;;5.18;1.95;;;;;;;23.99;44.64;101791.94;5012730;28;20496;-61
2022/05/18 00:03:18;;;;;;;5.15;2.22;;;;;;;23.96;44.89;101792.22;5011801;28;20585;-61
2022/05/18 00:05:44;;;;;;;6.63;2.30;;;;;;;23.96;44.95;101796.69;5012683;28;20491;-61
2022/05/18 00:08:16;;;;;;;4.68;2.03;;;;;;;23.95;44.48;101798.50;5012640;28;20053;-61
2022/05/18 00:10:44;;;;;;;6.47;2.22;;;;;;;23.95;44.57;101801.16;5012079;28;20033;-61
2022/05/18 00:13:10;;;;;;;6.10;2.70;;;;;;;23.94;44.99;101795.97;5012329;28;20075;-61
2022/05/18 00:15:37;;;;;;;6.05;2.33;;;;;;;23.94;44.68;101799.50;5012838;28;20101;-61
2022/05/18 00:18:03;;;;;;;5.30;2.40;;;;;;;23.92;44.63;101804.09;5011846;28;20359;-61
2022/05/18 00:20:28;;;;;;;5.15;2.10;;;;;;;23.93;44.99;101810.28;5012341;28;20512;-61
2022/05/18 00:22:57;;;;;;;7.40;2.58;;;;;;;23.91;44.96;101799.78;5012597;28;20026;-61
2022/05/18 00:25:25;;;;;;;4.68;2.10;;;;;;;23.90;44.89;101804.25;5011966;28;20025;-62
2022/05/18 00:27:51;;;;;;;5.95;2.55;;;;;;;23.89;44.87;101796.41;5012250;28;20061;-60
2022/05/18 00:30:18;;;;;;;5.28;2.17;;;;;;;23.89;44.97;101804.38;5012530;28;20077;-62
2022/05/18 00:32:44;;;;;;;5.07;2.30;;;;;;;23.89;44.92;101802.59;5011674;28;20426;-61
2022/05/18 00:35:14;;;;;;;4.65;2.10;;;;;;;23.88;44.69;101805.38;5012182;28;20113;-61
2022/05/18 00:37:39;;;;;;;6.18;2.40;;;;;;;23.87;44.69;101812.50;5012600;28;20026;-61
2022/05/18 00:40:06;;;;;;;5.70;2.30;;;;;;;23.87;44.52;101809.84;5011494;28;20025;-60
2022/05/18 00:42:31;;;;;;;6.53;2.47;;;;;;;23.86;44.73;101805.53;5012468;28;20279;-62
2022/05/18 00:44:57;;;;;;;6.03;2.15;;;;;;;23.86;44.92;101810.00;5011871;28;20022;-61
2022/05/18 00:47:25;;;;;;;5.60;2.25;;;;;;;23.85;44.56;101805.66;5011971;28;20485;-61
2022/05/18 00:49:57;;;;;;;7.68;2.38;;;;;;;23.85;44.93;101803.00;5012062;28;20343;-61
2022/05/18 00:52:28;;;;;;;6.55;2.28;;;;;;;23.85;44.88;101809.16;5011724;28;20114;-61
2022/05/18 00:54:57;;;;;;;7.22;2.40;;;;;;;23.84;44.91;101804.81;5012625;28;20022;-61
2022/05/18 00:57:30;;;;;;;4.90;2.30;;;;;;;23.83;44.84;101803.16;5015969;28;20045;-61
2022/05/18 01:00:03;;;;;;;6.85;2.10;;;;;;;23.83;44.63;101803.16;5014708;28;20030;-61
2022/05/18 01:02:32;;;;;;;5.25;2.17;;;;;;;23.83;44.91;101803.16;5016130;28;20057;-61
2022/05/18 01:05:00;;;;;;;4.97;2.47;;;;;;;23.83;44.59;101802.25;5015489;28;20022;-61
2022/05/18 01:07:32;;;;;;;5.43;2.15;;;;;;;23.81;44.49;101805.06;5015238;28;20533;-61
2022/05/18 01:09:59;;;;;;;5.40;2.40;;;;;;;23.81;44.88;101805.06;5015379;28;20036;-61
2022/05/18 01:12:27;;;;;;;6.70;2.28;;;;;;;23.81;44.42;101804.22;5015510;28;20125;-61
2022/05/18 01:15:00;;;;;;;5.40;2.17;;;;;;;23.81;44.72;101810.38;5014267;28;20045;-61
2022/05/18 01:17:32;;;;;;;4.18;2.17;;;;;;;23.81;44.66;101810.38;5015587;28;20367;-61
2022/05/18 01:20:00;;;;;;;5.20;2.15;;;;;;;23.79;44.72;101801.69;5015021;28;20057;-61
2022/05/18 01:22:47;;;;;;;5.03;2.20;;;;;;;23.79;44.54;101800.88;5014836;28;20363;-61
2022/05/18 01:25:34;;;;;;;6.25;2.20;;;;;;;23.79;44.88;101800.88;5015236;28;20034;-61
2022/05/18 01:28:03;;;;;;;7.20;2.70;;;;;;;23.78;44.64;101805.31;5014210;28;20034;-61
2022/05/18 01:30:31;;;;;;;6.90;2.33;;;;;;;23.79;44.96;101806.19;5015318;28;20585;-61
2022/05/18 01:32:58;;;;;;;6.60;2.70;;;;;;;23.77;44.72;101800.16;5014958;28;20028;-61
2022/05/18 01:35:30;;;;;;;4.13;2.33;;;;;;;23.77;45.01;101802.84;5014512;28;20375;-61
2022/05/18 01:37:59;;;;;;;6.13;2.53;;;;;;;23.77;44.93;101802.84;5015091;28;20018;-61
2022/05/18 01:40:38;;;;;;;8.45;2.58;;;;;;;23.77;44.65;101808.16;5015083;28;20466;-61
2022/05/18 01:43:13;;;;;;;4.63;2.10;;;;;;;23.76;45.08;101809.13;5014034;28;20528;-61
2022/05/18 01:45:38;;;;;;;5.88;3.15;;;;;;;23.75;44.59;101799.44;5014993;28;20058;-60
2022/05/18 01:48:13;;;;;;;5.30;2.30;;;;;;;23.73;44.48;101799.59;5014838;28;20068;-61
2022/05/18 01:50:39;;;;;;;5.35;2.33;;;;;;;23.73;44.67;101799.59;5014186;28;20044;-60
2022/05/18 01:53:04;;;;;;;8.45;2.45;;;;;;;23.72;44.97;101798.75;5014877;28;20100;-61
2022/05/18 01:55:30;;;;;;;5.72;2.38;;;;;;;23.71;45.00;101797.06;5014142;28;20014;-61
2022/05/18 01:57:55;;;;;;;7.00;2.35;;;;;;;23.71;44.70;101804.22;5014499;28;20080;-61
2022/05/18 02:00:21;;;;;;;5.93;2.43;;;;;;;23.71;44.86;101796.22;5014647;28;20027;-61
2022/05/18 02:02:46;;;;;;;6.72;2.40;;;;;;;23.69;45.06;101796.38;5014107;28;20755;-61
2022/05/18 02:05:12;;;;;;;5.38;2.35;;;;;;;23.70;45.00;101802.53;5014406;28;20474;-61
2022/05/18 02:07:37;;;;;;;6.88;2.85;;;;;;;23.70;44.51;101805.19;5013687;28;20501;-61
2022/05/18 02:10:04;;;;;;;5.63;2.50;;;;;;;23.68;44.61;101802.66;5013437;28;20500;-61
2022/05/18 02:12:29;;;;;;;6.07;2.63;;;;;;;23.68;44.68;101799.16;5014532;28;20018;-61
2022/05/18 02:14:54;;;;;;;8.45;3.33;;;;;;;23.67;44.89;101802.78;5014106;28;20029;-61
2022/05/18 02:17:19;;;;;;;5.07;2.20;;;;;;;23.66;44.79;101798.47;5014001;28;20374;-61
2022/05/18 02:19:45;;;;;;;6.07;2.65;;;;;;;23.67;44.69;101797.47;5014411;28;20314;-61
2022/05/18 02:22:16;;;;;;;4.70;2.20;;;;;;;23.66;44.93;101799.31;5014406;28;20382;-62
2022/05/18 02:24:41;;;;;;;6.63;2.53;;;;;;;23.65;44.74;101799.44;5013671;28;20034;-61
2022/05/18 02:27:19;;;;;;;4.77;2.50;;;;;;;23.65;44.96;101797.63;5013950;28;20157;-61
2022/05/18 02:29:44;;;;;;;5.05;2.72;;;;;;;23.64;44.87;101789.75;5014265;28;20362;-61
2022/05/18 02:32:15;;;;;;;5.35;2.50;;;;;;;23.64;44.74;101787.09;5013149;28;20502;-61
2022/05/18 02:34:40;;;;;;;5.05;2.47;;;;;;;23.63;44.89;101780.94;5013960;28;20437;-61
2022/05/18 02:37:06;;;;;;;3.87;2.27;;;;;;;23.63;44.82;101791.59;5013835;28;20050;-61
2022/05/18 02:39:37;;;;;;;7.85;2.58;;;;;;;23.62;45.20;101792.56;5013484;28;20057;-61
2022/05/18 02:42:03;;;;;;;5.60;2.38;;;;;;;23.62;45.10;101795.22;5013638;28;20045;-61
2022/05/18 02:44:31;;;;;;;5.70;2.53;;;;;;;23.61;45.13;101800.72;5013885;28;20054;-61
2022/05/18 02:46:57;;;;;;;4.82;2.60;;;;;;;23.60;44.85;101794.53;5013598;28;20029;-61
2022/05/18 02:49:23;;;;;;;6.03;2.60;;;;;;;23.59;45.11;101795.53;5013832;28;20033;-61
2022/05/18 02:51:51;;;;;;;6.20;2.65;;;;;;;23.60;44.91;101796.38;5012777;28;20036;-60
2022/05/18 02:57:01;;;;;;;5.15;2.50;;;;;;;23.59;45.06;101792.00;5013841;28;20049;-62
2022/05/18 02:59:27;;;;;;;5.75;2.47;;;;;;;23.59;44.72;101795.53;5013107;28;20402;-62
2022/05/18 03:01:52;;;;;;;5.70;2.80;;;;;;;23.59;44.80;101800.00;5013555;28;20029;-62
2022/05/18 03:04:18;;;;;;;5.00;2.33;;;;;;;23.58;45.01;101799.16;5013793;28;20031;-61
2022/05/18 03:06:44;;;;;;;6.35;2.72;;;;;;;23.58;44.71;101809.81;5013102;28;20022;-61
2022/05/18 03:09:12;;;;;;;5.50;2.55;;;;;;;23.57;44.79;101802.78;5013582;28;20018;-61
2022/05/18 03:11:37;;;;;;;6.28;2.83;;;;;;;23.58;44.87;101803.66;5012811;28;20045;-61
2022/05/18 03:14:02;;;;;;;5.57;2.50;;;;;;;23.58;45.12;101816.94;5012596;28;20112;-61
2022/05/18 03:16:29;;;;;;;6.28;2.45;;;;;;;23.56;45.02;101811.78;5013457;28;20030;-61
2022/05/18 03:18:54;;;;;;;4.72;2.55;;;;;;;23.56;45.19;101814.44;5013064;28;20037;-60
2022/05/18 03:24:03;;;;;;;5.85;3.00;;;;;;;23.56;44.80;101827.72;5013018;28;20087;-60
2022/05/18 03:26:29;;;;;;;5.05;2.83;;;;;;;23.56;44.82;101822.41;5013225;28;20029;-60
2022/05/18 03:28:56;;;;;;;5.47;2.80;;;;;;;23.54;45.19;101822.53;5012259;28;20022;-61
2022/05/18 03:31:22;;;;;;;5.68;2.83;;;;;;;23.55;44.73;101826.03;5012931;28;20493;-61
2022/05/18 03:33:47;;;;;;;4.78;2.33;;;;;;;23.54;45.14;101822.53;5012425;28;20030;-61
2022/05/18 03:36:15;;;;;;;4.82;2.70;;;;;;;23.54;45.18;101830.53;5012909;28;20462;-60
2022/05/18 03:38:42;;;;;;;5.35;2.78;;;;;;;23.54;44.83;101830.53;5013073;28;20466;-61
2022/05/18 03:41:08;;;;;;;5.90;2.78;;;;;;;23.53;44.81;101831.50;5012247;28;20793;-61
2022/05/18 03:43:33;;;;;;;5.22;2.47;;;;;;;23.54;45.29;101824.34;5013218;28;20088;-61
2022/05/18 03:45:59;;;;;;;5.05;2.60;;;;;;;23.52;44.98;101832.47;5012759;28;20049;-61
2022/05/18 03:48:25;;;;;;;5.03;2.83;;;;;;;23.53;44.87;101839.47;5012244;28;20036;-61
2022/05/18 03:50:53;;;;;;;6.63;2.80;;;;;;;23.53;45.17;101843.97;5012418;28;20076;-61
2022/05/18 03:53:21;;;;;;;4.97;2.70;;;;;;;23.53;44.77;101842.13;5013111;28;20028;-61
2022/05/18 03:55:46;;;;;;;4.68;2.75;;;;;;;23.52;45.26;101845.75;5012328;28;20050;-61
2022/05/18 03:58:13;;;;;;;5.68;2.65;;;;;;;23.52;44.83;101840.44;5012564;28;20065;-61
2022/05/18 04:00:41;;;;;;;5.72;2.67;;;;;;;23.53;45.22;101836.00;5012971;28;20026;-61
2022/05/18 04:03:08;;;;;;;7.53;2.80;;;;;;;23.53;44.86;101834.16;5011796;28;20052;-61
2022/05/18 04:05:37;;;;;;;5.72;2.95;;;;;;;23.52;45.29;101832.47;5012749;28;20038;-61
2022/05/18 04:08:02;;;;;;;4.95;2.83;;;;;;;23.53;44.90;101831.50;5012695;28;20129;-61
2022/05/18 04:10:27;;;;;;;5.85;2.75;;;;;;;23.53;45.07;101828.00;5011950;28;20545;-61
2022/05/18 04:12:53;;;;;;;4.60;2.67;;;;;;;23.53;45.16;101834.16;5012457;28;20029;-60
2022/05/18 04:15:18;;;;;;;4.97;2.60;;;;;;;23.52;45.01;101829.81;5012926;28;20057;-61
2022/05/18 04:17:45;;;;;;;5.40;3.00;;;;;;;23.53;45.00;101830.66;5012007;28;20030;-61
2022/05/18 04:20:15;;;;;;;6.50;3.63;;;;;;;23.53;44.94;101831.50;5012313;28;20133;-61
2022/05/18 04:22:41;;;;;;;5.85;2.70;;;;;;;23.54;45.01;101835.84;5012891;28;20059;-61
2022/05/18 04:25:10;;;;;;;4.97;2.90;;;;;;;23.54;44.88;101838.50;5011793;28;20527;-61
2022/05/18 04:27:35;;;;;;;4.90;2.85;;;;;;;23.54;45.20;101841.16;5012589;28;20044;-61
2022/05/18 04:30:03;;;;;;;7.28;3.35;;;;;;;23.55;45.02;101839.34;5012564;28;20413;-61
2022/05/18 04:32:28;;;;;;;4.53;2.70;;;;;;;23.53;45.03;101839.47;5016278;28;20033;-61
2022/05/18 04:34:53;;;;;;;5.70;3.03;;;;;;;23.55;45.01;101845.50;5016156;28;20114;-62
2022/05/18 04:37:19;;;;;;;5.07;2.80;;;;;;;23.55;45.39;101848.16;5015453;28;20022;-61
2022/05/18 04:39:45;;;;;;;6.20;2.90;;;;;;;23.57;45.12;101847.19;5016325;28;20030;-61
2022/05/18 04:42:11;;;;;;;5.55;3.10;;;;;;;23.58;45.07;101860.34;5015938;28;20405;-61
2022/05/18 04:44:36;;;;;;;5.75;3.00;;;;;;;23.58;45.20;101856.88;5015505;28;20084;-61
2022/05/18 04:47:03;;;;;;;4.85;2.70;;;;;;;23.58;45.31;101857.69;5015985;28;20397;-61
2022/05/18 04:49:28;;;;;;;4.85;2.80;;;;;;;23.59;45.37;101861.19;5016213;28;20025;-61
2022/05/18 04:51:54;;;;;;;5.47;2.83;;;;;;;23.60;45.39;101868.19;5015071;28;20042;-61
2022/05/18 04:54:19;;;;;;;4.87;2.70;;;;;;;23.60;45.18;101868.19;5016184;28;20474;-61
2022/05/18 04:56:44;;;;;;;4.40;2.50;;;;;;;23.59;45.33;101872.69;5016204;28;20263;-61
2022/05/18 04:59:10;;;;;;;6.95;2.92;;;;;;;23.61;44.87;101875.22;5015110;28;20021;-61
2022/05/18 05:01:38;;;;;;;4.40;2.70;;;;;;;23.59;45.38;101878.00;5015880;28;20106;-61
2022/05/18 05:04:09;;;;;;;4.50;3.08;;;;;;;23.61;45.13;101883.19;5015695;28;20108;-61
2022/05/18 05:06:37;;;;;;;4.43;2.72;;;;;;;23.60;45.26;101879.69;5015207;28;20022;-61
2022/05/18 05:09:03;;;;;;;5.40;3.05;;;;;;;23.62;44.88;101879.53;5015414;28;20018;-61
2022/05/18 05:11:28;;;;;;;4.85;2.60;;;;;;;23.62;44.91;101887.53;5015648;28;20034;-61
2022/05/18 05:13:53;;;;;;;4.83;2.77;;;;;;;23.62;44.90;101890.19;5014684;28;20041;-61
2022/05/18 05:16:21;;;;;;;4.32;2.83;;;;;;;23.63;45.21;101895.38;5015746;28;20782;-61
2022/05/18 05:18:47;;;;;;;4.40;2.40;;;;;;;23.64;45.40;101888.22;5015741;28;20046;-61
2022/05/18 05:21:15;;;;;;;4.93;3.10;;;;;;;23.63;44.94;101898.03;5014298;28;20451;-61
2022/05/18 05:23:40;;;;;;;4.28;2.70;;;;;;;23.64;45.21;101904.19;5015611;28;20081;-61
2022/05/18 05:26:05;;;;;;;8.23;2.88;;;;;;;23.64;45.48;101897.06;5015166;28;20534;-60
2022/05/18 05:28:31;;;;;;;4.35;2.90;;;;;;;23.65;45.22;101900.56;5014880;28;20026;-62
2022/05/18 05:31:04;;;;;;;5.03;2.88;;;;;;;23.65;45.27;101890.75;5015239;28;20354;-61
2022/05/18 05:33:30;;;;;;;5.65;2.70;;;;;;;23.65;45.32;101896.06;5014541;28;20084;-61
2022/05/18 05:35:56;;;;;;;4.20;2.60;;;;;;;23.65;44.74;101898.72;5014720;28;20038;-63
2022/05/18 05:38:21;;;;;;;6.13;2.63;;;;;;;23.61;45.31;101901.81;5015212;28;20026;-62
2022/05/18 05:40:46;;;;;;;5.10;2.80;;;;;;;23.49;46.54;101907.22;5014085;28;20690;-66
2022/05/18 05:43:15;;;;;;;5.83;3.50;;;;;;;23.39;47.00;101905.53;5013562;28;20355;-63
2022/05/18 05:45:40;;;;;;;4.60;2.90;;;;;;;23.39;46.53;101902.88;5015192;28;20044;-63
2022/05/18 05:48:08;;;;;;;4.93;3.30;;;;;;;23.42;46.38;101902.59;5013965;28;20034;-64
2022/05/18 05:50:33;;;;;;;4.00;2.60;;;;;;;23.42;46.29;101908.75;5014838;28;20037;-64
2022/05/18 05:52:59;;;;;;;4.35;2.63;;;;;;;23.42;45.98;101918.56;5014494;28;20057;-63
2022/05/18 05:55:25;;;;;;;4.32;2.60;;;;;;;23.42;45.98;101921.22;5014007;28;20033;-62
2022/05/18 05:57:55;;;;;;;4.65;2.92;;;;;;;23.45;46.22;101931.56;5014576;28;20034;-62
2022/05/18 06:00:21;;;;;;;4.63;2.67;;;;;;;23.45;45.82;101934.22;5014723;28;20022;-63
2022/05/18 06:02:47;;;;;;;5.50;2.45;;;;;;;23.46;46.11;101928.78;5014035;28;20022;-62
2022/05/18 06:05:13;;;;;;;5.07;2.70;;;;;;;23.46;46.30;101927.94;5014355;28;20103;-62
2022/05/18 06:07:38;;;;;;;4.80;2.55;;;;;;;23.47;46.01;101927.81;5014619;28;20022;-59
2022/05/18 06:10:04;;;;;;;6.57;2.47;;;;;;;23.47;46.13;101930.47;5013580;28;20095;-59
2022/05/18 06:12:29;;;;;;;4.68;2.67;;;;;;;23.49;46.26;101930.34;5014163;28;20291;-60
2022/05/18 06:14:54;;;;;;;4.53;2.60;;;;;;;23.49;46.09;101933.00;5014264;28;20113;-62
2022/05/18 06:17:20;;;;;;;6.37;2.73;;;;;;;23.51;46.38;101933.69;5013831;28;20049;-61
2022/05/18 06:19:48;;;;;;;4.88;2.63;;;;;;;23.53;46.72;101939.75;5013921;28;20433;-62
2022/05/18 06:22:13;;;;;;;4.82;2.78;;;;;;;23.53;46.26;101948.56;5014225;28;20038;-61
2022/05/18 06:24:40;;;;;;;4.10;2.10;;;;;;;23.56;46.24;101958.09;5013367;28;20092;-62
2022/05/18 06:27:05;;;;;;;4.30;2.65;;;;;;;23.54;46.61;101960.91;5013627;28;20441;-62
2022/05/18 06:29:30;;;;;;;5.35;2.42;;;;;;;23.54;46.10;101960.91;5014329;28;20029;-61
2022/05/18 06:31:56;;;;;;;6.18;2.60;;;;;;;23.56;46.18;101955.44;5013225;28;20022;-61
2022/05/18 06:34:22;;;;;;;8.57;2.60;;;;;;;23.54;46.54;101950.25;5014437;28;20091;-63
2022/05/18 06:36:49;;;;;;;5.45;2.72;;;;;;;23.56;46.43;101958.09;5013540;28;20024;-61
2022/05/18 06:39:16;;;;;;;4.30;2.50;;;;;;;23.56;46.02;101966.09;5014157;28;20029;-61
2022/05/18 06:41:41;;;;;;;4.65;2.60;;;;;;;23.55;46.50;101959.91;5013936;28;20088;-61
2022/05/18 06:44:06;;;;;;;3.97;2.10;;;;;;;23.57;46.04;101965.09;5013007;28;20030;-61
2022/05/18 06:46:34;;;;;;;4.18;2.15;;;;;;;23.57;46.41;101966.91;5013984;28;20017;-63
2022/05/18 06:49:01;;;;;;;4.47;2.47;;;;;;;23.58;46.47;101971.28;5015817;28;20454;-64
2022/05/18 06:51:30;;;;;;;7.22;3.80;;;;;;;23.59;46.32;101957.84;5014068;28;20371;-62
2022/05/18 06:53:56;;;;;;;5.43;2.70;;;;;;;23.64;46.47;101965.38;5013605;28;20024;-60
2022/05/18 06:56:24;;;;;;;6.43;3.20;;;;;;;23.70;46.68;101970.19;5014256;28;20359;-63
2022/05/18 06:58:51;;;;;;;7.93;3.10;;;;;;;23.75;46.22;101964.47;5013300;28;20105;-61
2022/05/18 07:01:18;;;;;;;5.05;2.75;;;;;;;23.80;46.51;101980.84;5014544;28;20036;-60
2022/05/18 07:03:44;;;;;;;4.82;2.83;;;;;;;23.84;46.30;101982.31;5014958;28;20065;-62
2022/05/18 07:06:11;;;;;;;5.03;2.67;;;;;;;23.87;45.85;101988.19;5013480;28;20030;-60
2022/05/18 07:08:37;;;;;;;5.22;2.80;;;;;;;23.89;46.29;101983.59;5014919;28;20061;-62
2022/05/18 07:11:03;;;;;;;6.20;3.10;;;;;;;23.91;46.24;101991.47;5014017;28;20026;-62
2022/05/18 07:13:31;;;;;;;6.60;3.38;;;;;;;23.93;45.88;101996.66;5013158;28;20470;-62
2022/05/18 07:15:56;;;;;;;5.88;2.78;;;;;;;23.95;46.13;101990.19;5013166;28;20026;-64
2022/05/18 07:18:29;;;;;;;4.88;2.75;;;;;;;23.97;45.60;101992.72;5013539;28;20029;-63
2022/05/18 07:20:54;;;;;;;6.07;3.30;;;;;;;23.98;45.97;101992.59;5012342;28;20383;-62
2022/05/18 07:23:19;;;;;;;4.70;3.08;;;;;;;24.01;45.50;102002.13;5015058;28;20037;-60
2022/05/18 07:25:48;;;;;;;7.80;3.10;;;;;;;24.02;45.60;102003.78;5013830;28;20030;-63
2022/05/18 07:28:13;;;;;;;6.88;3.45;;;;;;;24.01;45.70;102002.97;5012888;28;20103;-62
2022/05/18 07:30:38;;;;;;;5.17;2.90;;;;;;;24.01;46.04;102010.94;5013238;28;20057;-62
2022/05/18 07:33:04;;;;;;;5.90;3.20;;;;;;;24.01;45.86;102008.28;5012200;28;20100;-63
2022/05/18 07:35:29;;;;;;;5.45;3.33;;;;;;;24.03;46.03;102003.66;5012858;28;20021;-62
2022/05/18 07:37:57;;;;;;;5.73;3.40;;;;;;;24.02;46.42;102007.31;5012552;28;20048;-63
2022/05/18 07:40:23;;;;;;;6.60;3.47;;;;;;;24.02;46.10;102004.66;5012237;28;20275;-63
2022/05/18 07:42:54;;;;;;;6.43;3.20;;;;;;;24.03;46.09;102006.31;5012758;28;20056;-62
2022/05/18 07:45:20;;;;;;;6.20;3.67;;;;;;;24.02;46.11;102001.13;5013137;28;20091;-62
2022/05/18 07:47:46;;;;;;;5.93;3.20;;;;;;;24.05;46.34;102014.19;5012241;28;20036;-62
2022/05/18 07:50:12;;;;;;;6.38;3.58;;;;;;;24.06;46.45;102011.38;5012521;28;20026;-62
2022/05/18 07:52:38;;;;;;;5.95;3.17;;;;;;;24.08;46.07;102013.91;5012650;28;20049;-62
2022/05/18 07:55:03;;;;;;;7.05;3.78;;;;;;;24.08;46.25;102005.91;5011952;28;20508;-62
2022/05/18 07:57:29;;;;;;;7.07;3.63;;;;;;;24.09;46.38;102015.59;5013246;28;20474;-64
2022/05/18 07:59:56;;;;;;;6.18;3.80;;;;;;;24.11;46.21;102018.97;5014870;28;20033;-63
2022/05/18 08:02:21;;;;;;;6.78;3.92;;;;;;;24.13;46.68;102018.81;5012114;28;20037;-60
2022/05/18 08:04:46;;;;;;;6.80;3.70;;;;;;;24.09;46.68;102016.44;5013136;28;20026;-61
2022/05/18 08:07:24;;;;;;;6.07;3.60;;;;;;;24.11;46.29;102026.13;5016527;28;20022;-61
2022/05/18 08:15:29;;;;;;;8.18;4.30;;;;;;;24.08;46.21;102027.22;5016085;28;20068;-62
2022/05/18 08:17:54;;;;;;;6.72;4.15;;;;;;;24.07;46.24;102014.91;5016979;28;20052;-62
2022/05/18 08:20:21;;;;;;;6.60;4.10;;;;;;;24.08;45.93;102019.22;5016703;28;20454;-62
2022/05/18 08:22:47;;;;;;;5.63;3.72;;;;;;;24.08;45.81;102024.56;5016058;28;20088;-61
2022/05/18 08:25:14;;;;;;;7.80;4.10;;;;;;;24.10;46.04;102019.97;5016643;28;20030;-64
2022/05/18 08:27:45;;;;;;;6.80;3.70;;;;;;;24.13;45.65;102017.00;5016750;28;20532;-61
2022/05/18 08:30:13;;;;;;;5.78;4.28;;;;;;;24.17;46.00;102029.06;5016305;28;20449;-62
2022/05/18 08:32:38;;;;;;;5.32;3.55;;;;;;;24.20;45.88;102027.97;5017383;28;20030;-62
2022/05/18 08:35:05;;;;;;;7.28;4.22;;;;;;;24.23;46.10;102027.69;5016961;28;20025;-63
2022/05/18 08:37:37;;;;;;;5.90;4.20;;;;;;;24.29;45.89;102034.28;5016722;28;20482;-62
2022/05/18 08:40:06;;;;;;;7.30;4.57;;;;;;;24.31;45.35;102035.84;5016505;28;20037;-62
2022/05/18 08:42:34;;;;;;;6.72;4.40;;;;;;;24.32;45.64;102034.84;5016256;28;20032;-62
2022/05/18 08:44:59;;;;;;;6.65;4.75;;;;;;;24.33;45.85;102041.88;5015217;28;20466;-62
2022/05/18 08:47:35;;;;;;;6.68;4.50;;;;;;;24.32;45.48;102037.50;5016173;28;20038;-63
2022/05/18 08:50:06;;;;;;;7.18;4.70;;;;;;;24.32;45.87;102034.84;5015745;28;20030;-63
2022/05/18 08:52:58;;;;;;;6.43;4.60;;;;;;;24.33;45.99;102033.03;5015174;28;20477;-62
2022/05/18 08:55:48;;;;;;;6.03;4.50;;;;;;;24.32;45.56;102034.00;5016168;28;20355;-64
2022/05/18 08:58:22;;;;;;;6.28;4.35;;;;;;;24.32;45.61;102042.00;5015288;28;20037;-64
2022/05/18 09:01:10;;;;;;;6.57;4.78;;;;;;;24.31;45.95;102038.50;5016476;28;20030;-64
2022/05/18 09:03:43;;;;;;;6.88;4.25;;;;;;;24.32;46.38;102037.50;5015939;28;20037;-62
2022/05/18 09:06:32;;;;;;;6.47;4.55;;;;;;;24.33;45.91;102038.38;5014808;28;20030;-63
2022/05/18 09:12:03;;;;;;;7.43;5.10;;;;;;;24.36;46.02;102032.78;5014575;28;20497;-62
2022/05/18 09:14:37;;;;;;;7.35;4.70;;;;;;;24.37;46.13;102039.75;5015861;28;20029;-62
2022/05/18 09:17:31;;;;;;;6.25;4.15;;;;;;;24.37;45.86;102037.09;5015113;28;20072;-63
2022/05/18 09:20:19;;;;;;;7.30;4.37;;;;;;;24.34;46.19;102037.38;5014276;28;20061;-63
2022/05/18 09:23:13;;;;;;;7.18;5.30;;;;;;;24.34;45.78;102040.91;5015669;28;20029;-64
2022/05/18 09:25:52;;;;;;;7.47;4.65;;;;;;;24.35;45.84;102039.06;5009776;28;20080;-63
2022/05/18 09:28:56;;;;;;;8.40;4.63;;;;;;;24.38;45.99;102041.47;5015253;28;20026;-63
2022/05/18 09:31:49;;;;;;;6.97;4.38;;;;;;;24.39;46.17;102037.81;5015229;28;20034;-63
2022/05/18 09:34:29;;;;;;;7.85;4.43;;;;;;;24.36;46.04;102038.09;5014582;28;20026;-62
2022/05/18 09:37:11;;;;;;;6.95;4.22;;;;;;;24.34;46.13;102037.38;5015046;28;20037;-63
2022/05/18 09:39:41;;;;;;;8.20;5.10;;;;;;;24.33;46.24;102038.38;5014634;28;20021;-64
2022/05/18 09:42:15;;;;;;;10.43;4.50;;;;;;;24.32;46.20;102029.50;5015166;28;20022;-61
2022/05/18 09:44:54;;;;;;;6.82;4.68;;;;;;;24.33;46.38;102038.38;5015221;28;20108;-61
2022/05/18 09:47:22;;;;;;;10.57;4.65;;;;;;;24.33;45.86;102035.72;5014507;28;20033;-61
2022/05/18 09:49:53;;;;;;;9.45;5.10;;;;;;;24.31;46.31;102035.84;5015148;28;20068;-61
2022/05/18 09:52:24;;;;;;;7.45;4.47;;;;;;;24.33;45.79;102038.38;5014880;28;20030;-59
2022/05/18 09:54:56;;;;;;;6.43;4.20;;;;;;;24.33;46.01;102035.72;5013833;28;20026;-61
2022/05/18 09:57:31;;;;;;;5.30;3.90;;;;;;;24.34;45.86;102035.56;5015033;28;20478;-61
2022/05/18 10:00:01;;;;;;;6.30;4.00;;;;;;;24.36;45.76;102038.94;5014829;28;20382;-61
2022/05/18 10:08:15;;;;;;;6.70;4.25;;;;;;;24.34;45.79;102050.69;5013997;28;20041;-61
2022/05/18 10:10:41;;;;;;;5.75;4.10;;;;;;;24.34;45.75;102050.69;5014628;28;20022;-61
2022/05/18 10:13:12;;;;;;;6.63;3.95;;;;;;;24.31;46.05;102043.84;5014236;28;20034;-61
2022/05/18 10:15:41;;;;;;;6.75;3.67;;;;;;;24.25;45.74;102044.38;5013848;28;20056;-61
2022/05/18 10:18:12;;;;;;;5.85;3.80;;;;;;;24.23;46.28;102038.34;5014168;28;20053;-61
2022/05/18 10:20:40;;;;;;;8.45;4.40;;;;;;;24.23;45.94;102041.84;5014458;28;20053;-61
2022/05/18 10:23:41;;;;;;;7.13;3.85;;;;;;;24.24;46.33;102037.34;5013442;28;20030;-61
2022/05/18 10:26:21;;;;;;;6.45;3.78;;;;;;;24.26;45.75;102038.91;5014100;28;20212;-60
2022/05/18 10:29:04;;;;;;;6.72;4.18;;;;;;;24.24;46.28;102040.88;5013096;28;20050;-61
2022/05/18 10:31:41;;;;;;;6.38;3.80;;;;;;;24.23;45.79;102041.84;5014355;28;20026;-61
2022/05/18 10:34:28;;;;;;;5.57;3.58;;;;;;;24.22;46.19;102037.50;5013782;28;20474;-61
2022/05/18 10:36:59;;;;;;;5.88;3.67;;;;;;;24.23;46.31;102041.84;5012761;28;20105;-64
2022/05/18 10:39:35;;;;;;;8.05;4.25;;;;;;;24.22;46.26;102024.16;5014139;28;20120;-63
2022/05/18 10:42:07;;;;;;;5.70;3.85;;;;;;;24.22;46.32;102026.00;5013767;28;20394;-61
2022/05/18 10:44:34;;;;;;;5.40;3.40;;;;;;;24.22;46.31;102024.16;5013365;28;20474;-61
2022/05/18 10:47:32;;;;;;;5.63;3.75;;;;;;;24.24;45.94;102026.69;5013443;28;20026;-61
2022/05/18 10:50:25;;;;;;;5.53;3.45;;;;;;;24.26;46.04;102019.44;5013127;28;20382;-61
2022/05/18 10:53:17;;;;;;;5.65;3.20;;;;;;;24.29;45.50;102018.31;5013553;28;20474;-61
2022/05/18 10:55:58;;;;;;;5.82;3.60;;;;;;;24.29;45.56;102019.13;5013793;28;20034;-61
2022/05/18 10:58:26;;;;;;;4.82;3.28;;;;;;;24.30;45.55;102012.00;5012903;28;20497;-62
2022/05/18 11:00:55;;;;;;;4.93;3.22;;;;;;;24.28;45.44;102014.81;5013472;28;20069;-62
2022/05/18 11:03:26;;;;;;;6.60;3.67;;;;;;;24.29;45.77;102023.63;5013654;28;20026;-62
2022/05/18 11:05:59;;;;;;;5.93;3.63;;;;;;;24.24;45.73;102016.91;5012652;28;20041;-62
2022/05/18 11:08:30;;;;;;;6.70;3.70;;;;;;;24.21;45.74;102013.66;5013606;28;20033;-62
2022/05/18 11:11:29;;;;;;;5.93;3.42;;;;;;;24.21;45.88;102019.84;5012569;28;20528;-61
2022/05/18 11:14:11;;;;;;;5.78;3.20;;;;;;;24.20;45.69;102010.16;5013398;28;20034;-62
2022/05/18 11:17:04;;;;;;;5.95;3.30;;;;;;;24.19;45.95;102015.63;5013396;28;20029;-60
2022/05/18 11:19:47;;;;;;;5.15;3.20;;;;;;;24.17;45.76;102017.59;5012646;28;20040;-60
2022/05/18 11:22:32;;;;;;;4.75;3.10;;;;;;;24.15;46.29;102015.06;5013075;28;20030;-61
2022/05/18 11:25:16;;;;;;;4.95;3.33;;;;;;;24.18;45.74;102013.94;5012826;28;20034;-62
2022/05/18 11:27:49;;;;;;;4.87;3.17;;;;;;;24.16;45.84;102013.22;5013523;28;20033;-64
2022/05/18 11:30:23;;;;;;;4.50;2.70;;;;;;;24.11;46.33;102013.63;5013209;28;20279;-64
2022/05/18 11:33:29;;;;;;;4.65;2.92;;;;;;;24.11;46.27;102010.13;5011731;28;20076;-63
2022/05/18 11:36:13;;;;;;;5.13;3.10;;;;;;;24.12;46.44;102007.34;5013006;28;20045;-63
2022/05/18 11:39:04;;;;;;;4.85;3.10;;;;;;;24.14;46.48;102000.06;5013233;28;20025;-63
2022/05/18 11:41:50;;;;;;;4.57;2.92;;;;;;;24.14;46.31;101997.38;5013676;28;20026;-64
2022/05/18 11:44:28;;;;;;;5.10;3.08;;;;;;;24.12;46.35;101994.03;5013285;28;20117;-63
2022/05/18 11:47:09;;;;;;;4.53;2.90;;;;;;;24.11;46.66;102002.16;5012144;28;20022;-62
2022/05/18 11:49:53;;;;;;;5.38;3.08;;;;;;;24.08;46.74;101997.94;5013089;28;20064;-63
2022/05/18 11:52:23;;;;;;;5.30;3.25;;;;;;;24.06;46.80;101998.06;5012993;28;20037;-61
2022/05/18 11:54:57;;;;;;;5.20;2.80;;;;;;;24.07;46.44;101988.28;5012041;28;20040;-61
2022/05/18 11:57:22;;;;;;;;;;;;;;;24.11;46.51;102002.16;5013491;28;20034;-61